sensor_id;sensor_type;location;lat;lon;timestamp;P1;durP1;ratioP1;P2;durP2;ratioP2
34924;SDS011;21130;51.728;8.748;2023-03-24T00:00:14;4.15;;;1.70;;
34924;SDS011;21130;51.728;8.748;2023-03-24T00:02:42;3.97;;;2.85;;
34924;SDS011;21130;51.728;8.748;2023-03-24T00:05:11;6.45;;;4.07;;
34924;SDS011;21130;51.728;8.748;2023-03-24T00:07:40;2.75;;;1.30;;
34924;SDS011;21130;51.728;8.748;2023-03-24T00:10:08;7.38;;;4.07;;
34924;SDS011;21130;51.728;8.748;2023-03-24T00:12:36;5.05;;;2.55;;
34924;SDS011;21130;51.728;8.748;2023-03-24T00:15:05;3.95;;;1.92;;
34924;SDS011;21130;51.728;8.748;2023-03-24T00:17:32;3.17;;;1.70;;
34924;SDS011;21130;51.728;8.748;2023-03-24T00:20:01;2.53;;;1.60;;
34924;SDS011;21130;51.728;8.748;2023-03-24T00:22:31;3.42;;;1.92;;
34924;SDS011;21130;51.728;8.748;2023-03-24T00:24:59;1.67;;;1.30;;
34924;SDS011;21130;51.728;8.748;2023-03-24T00:27:28;2.33;;;1.58;;
34924;SDS011;21130;51.728;8.748;2023-03-24T00:29:54;3.47;;;1.63;;
34924;SDS011;21130;51.728;8.748;2023-03-24T00:32:23;2.92;;;1.52;;
34924;SDS011;21130;51.728;8.748;2023-03-24T00:34:51;2.47;;;1.58;;
34924;SDS011;21130;51.728;8.748;2023-03-24T00:37:18;4.10;;;1.70;;
34924;SDS011;21130;51.728;8.748;2023-03-24T00:39:44;3.28;;;1.35;;
34924;SDS011;21130;51.728;8.748;2023-03-24T00:42:12;3.28;;;1.50;;
34924;SDS011;21130;51.728;8.748;2023-03-24T00:44:38;2.55;;;1.73;;
34924;SDS011;21130;51.728;8.748;2023-03-24T00:47:05;2.60;;;1.42;;
34924;SDS011;21130;51.728;8.748;2023-03-24T00:49:31;1.85;;;1.50;;
34924;SDS011;21130;51.728;8.748;2023-03-24T00:52:07;2.28;;;1.30;;
34924;SDS011;21130;51.728;8.748;2023-03-24T00:54:35;3.60;;;1.33;;
34924;SDS011;21130;51.728;8.748;2023-03-24T00:57:01;1.42;;;1.13;;
34924;SDS011;21130;51.728;8.748;2023-03-24T00:59:30;2.10;;;1.20;;
34924;SDS011;21130;51.728;8.748;2023-03-24T01:02:02;2.22;;;1.38;;
34924;SDS011;21130;51.728;8.748;2023-03-24T01:04:28;2.90;;;1.50;;
34924;SDS011;21130;51.728;8.748;2023-03-24T01:06:55;1.60;;;1.50;;
34924;SDS011;21130;51.728;8.748;2023-03-24T01:09:23;2.40;;;1.30;;
34924;SDS011;21130;51.728;8.748;2023-03-24T01:11:50;2.13;;;1.60;;
34924;SDS011;21130;51.728;8.748;2023-03-24T01:14:16;1.50;;;1.38;;
34924;SDS011;21130;51.728;8.748;2023-03-24T01:16:44;3.38;;;1.40;;
34924;SDS011;21130;51.728;8.748;2023-03-24T01:19:11;1.20;;;1.10;;
34924;SDS011;21130;51.728;8.748;2023-03-24T01:21:38;1.85;;;1.30;;
34924;SDS011;21130;51.728;8.748;2023-03-24T01:24:06;1.70;;;1.40;;
34924;SDS011;21130;51.728;8.748;2023-03-24T01:26:32;1.60;;;1.50;;
34924;SDS011;21130;51.728;8.748;2023-03-24T01:28:59;3.45;;;1.48;;
34924;SDS011;21130;51.728;8.748;2023-03-24T01:31:26;1.77;;;1.48;;
34924;SDS011;21130;51.728;8.748;2023-03-24T01:33:53;1.77;;;1.42;;
34924;SDS011;21130;51.728;8.748;2023-03-24T01:36:20;1.95;;;1.60;;
34924;SDS011;21130;51.728;8.748;2023-03-24T01:38:46;1.92;;;1.42;;
34924;SDS011;21130;51.728;8.748;2023-03-24T01:41:13;1.92;;;1.50;;
34924;SDS011;21130;51.728;8.748;2023-03-24T01:43:39;2.15;;;1.55;;
34924;SDS011;21130;51.728;8.748;2023-03-24T01:46:07;1.48;;;1.38;;
34924;SDS011;21130;51.728;8.748;2023-03-24T01:48:42;1.65;;;1.40;;
34924;SDS011;21130;51.728;8.748;2023-03-24T01:51:16;2.88;;;1.90;;
34924;SDS011;21130;51.728;8.748;2023-03-24T01:53:46;2.67;;;1.90;;
34924;SDS011;21130;51.728;8.748;2023-03-24T01:56:16;3.00;;;1.65;;
34924;SDS011;21130;51.728;8.748;2023-03-24T01:58:45;1.50;;;1.40;;
34924;SDS011;21130;51.728;8.748;2023-03-24T02:01:15;2.30;;;1.65;;
34924;SDS011;21130;51.728;8.748;2023-03-24T02:03:43;2.33;;;1.73;;
34924;SDS011;21130;51.728;8.748;2023-03-24T02:06:11;1.83;;;1.65;;
34924;SDS011;21130;51.728;8.748;2023-03-24T02:08:43;2.65;;;1.67;;
34924;SDS011;21130;51.728;8.748;2023-03-24T02:11:13;2.38;;;1.80;;
34924;SDS011;21130;51.728;8.748;2023-03-24T02:13:40;2.03;;;1.75;;
34924;SDS011;21130;51.728;8.748;2023-03-24T02:19:13;1.48;;;1.38;;
34924;SDS011;21130;51.728;8.748;2023-03-24T02:22:08;1.70;;;1.60;;
34924;SDS011;21130;51.728;8.748;2023-03-24T02:25:10;2.78;;;1.60;;
34924;SDS011;21130;51.728;8.748;2023-03-24T02:28:03;1.98;;;1.52;;
34924;SDS011;21130;51.728;8.748;2023-03-24T02:30:52;1.50;;;1.40;;
34924;SDS011;21130;51.728;8.748;2023-03-24T02:39:37;2.00;;;1.80;;
34924;SDS011;21130;51.728;8.748;2023-03-24T02:42:18;2.72;;;2.03;;
34924;SDS011;21130;51.728;8.748;2023-03-24T02:44:53;2.70;;;1.80;;
34924;SDS011;21130;51.728;8.748;2023-03-24T02:47:29;1.85;;;1.70;;
34924;SDS011;21130;51.728;8.748;2023-03-24T02:50:04;2.50;;;1.95;;
34924;SDS011;21130;51.728;8.748;2023-03-24T02:52:42;2.00;;;1.80;;
34924;SDS011;21130;51.728;8.748;2023-03-24T02:55:14;1.80;;;1.70;;
34924;SDS011;21130;51.728;8.748;2023-03-24T02:57:45;1.98;;;1.77;;
34924;SDS011;21130;51.728;8.748;2023-03-24T03:00:18;2.03;;;1.83;;
34924;SDS011;21130;51.728;8.748;2023-03-24T03:02:51;1.95;;;1.70;;
34924;SDS011;21130;51.728;8.748;2023-03-24T03:05:24;2.08;;;1.85;;
34924;SDS011;21130;51.728;8.748;2023-03-24T03:07:54;1.90;;;1.77;;
34924;SDS011;21130;51.728;8.748;2023-03-24T03:10:26;2.35;;;1.73;;
34924;SDS011;21130;51.728;8.748;2023-03-24T03:12:57;1.88;;;1.67;;
34924;SDS011;21130;51.728;8.748;2023-03-24T03:15:27;2.90;;;2.00;;
34924;SDS011;21130;51.728;8.748;2023-03-24T03:18:00;2.13;;;1.92;;
34924;SDS011;21130;51.728;8.748;2023-03-24T03:20:32;3.10;;;1.88;;
34924;SDS011;21130;51.728;8.748;2023-03-24T03:23:04;1.98;;;1.60;;
34924;SDS011;21130;51.728;8.748;2023-03-24T03:25:36;2.30;;;2.10;;
34924;SDS011;21130;51.728;8.748;2023-03-24T03:28:07;2.58;;;1.90;;
34924;SDS011;21130;51.728;8.748;2023-03-24T03:30:37;3.03;;;2.30;;
34924;SDS011;21130;51.728;8.748;2023-03-24T03:33:07;2.15;;;1.92;;
34924;SDS011;21130;51.728;8.748;2023-03-24T03:35:38;2.35;;;2.10;;
34924;SDS011;21130;51.728;8.748;2023-03-24T03:38:11;3.75;;;2.00;;
34924;SDS011;21130;51.728;8.748;2023-03-24T03:40:48;2.00;;;1.90;;
34924;SDS011;21130;51.728;8.748;2023-03-24T03:43:17;2.85;;;2.00;;
34924;SDS011;21130;51.728;8.748;2023-03-24T03:45:44;4.20;;;1.98;;
34924;SDS011;21130;51.728;8.748;2023-03-24T03:48:10;2.55;;;1.98;;
34924;SDS011;21130;51.728;8.748;2023-03-24T03:50:37;2.50;;;2.10;;
34924;SDS011;21130;51.728;8.748;2023-03-24T03:53:03;2.13;;;1.85;;
34924;SDS011;21130;51.728;8.748;2023-03-24T03:55:30;2.20;;;1.90;;
34924;SDS011;21130;51.728;8.748;2023-03-24T03:58:00;4.10;;;1.95;;
34924;SDS011;21130;51.728;8.748;2023-03-24T04:00:28;1.92;;;1.83;;
34924;SDS011;21130;51.728;8.748;2023-03-24T04:03:01;2.30;;;1.80;;
34924;SDS011;21130;51.728;8.748;2023-03-24T04:05:37;2.28;;;1.75;;
34924;SDS011;21130;51.728;8.748;2023-03-24T04:08:17;2.03;;;1.70;;
34924;SDS011;21130;51.728;8.748;2023-03-24T04:14:00;2.67;;;1.92;;
34924;SDS011;21130;51.728;8.748;2023-03-24T04:16:39;2.08;;;1.85;;
34924;SDS011;21130;51.728;8.748;2023-03-24T04:19:18;1.80;;;1.70;;
34924;SDS011;21130;51.728;8.748;2023-03-24T04:22:03;3.53;;;1.70;;
34924;SDS011;21130;51.728;8.748;2023-03-24T04:24:43;1.60;;;1.50;;
34924;SDS011;21130;51.728;8.748;2023-03-24T04:27:18;1.70;;;1.60;;
34924;SDS011;21130;51.728;8.748;2023-03-24T04:29:53;2.13;;;1.67;;
34924;SDS011;21130;51.728;8.748;2023-03-24T04:32:28;1.77;;;1.60;;
34924;SDS011;21130;51.728;8.748;2023-03-24T04:35:01;1.95;;;1.75;;
34924;SDS011;21130;51.728;8.748;2023-03-24T04:37:32;3.17;;;1.90;;
34924;SDS011;21130;51.728;8.748;2023-03-24T04:40:03;1.95;;;1.75;;
34924;SDS011;21130;51.728;8.748;2023-03-24T04:42:33;1.83;;;1.70;;
34924;SDS011;21130;51.728;8.748;2023-03-24T04:45:03;2.25;;;1.50;;
34924;SDS011;21130;51.728;8.748;2023-03-24T04:47:32;1.77;;;1.55;;
34924;SDS011;21130;51.728;8.748;2023-03-24T04:50:04;2.25;;;1.60;;
34924;SDS011;21130;51.728;8.748;2023-03-24T04:52:35;2.00;;;1.70;;
34924;SDS011;21130;51.728;8.748;2023-03-24T04:55:02;1.67;;;1.58;;
34924;SDS011;21130;51.728;8.748;2023-03-24T04:57:48;2.58;;;1.95;;
34924;SDS011;21130;51.728;8.748;2023-03-24T05:00:17;2.60;;;1.90;;
34924;SDS011;21130;51.728;8.748;2023-03-24T05:02:43;2.05;;;1.88;;
34924;SDS011;21130;51.728;8.748;2023-03-24T05:05:10;2.03;;;1.83;;
34924;SDS011;21130;51.728;8.748;2023-03-24T05:07:36;2.55;;;2.25;;
34924;SDS011;21130;51.728;8.748;2023-03-24T05:10:04;2.17;;;1.98;;
34924;SDS011;21130;51.728;8.748;2023-03-24T05:12:31;2.30;;;2.10;;
34924;SDS011;21130;51.728;8.748;2023-03-24T05:14:58;2.28;;;2.08;;
34924;SDS011;21130;51.728;8.748;2023-03-24T05:17:26;2.17;;;1.98;;
34924;SDS011;21130;51.728;8.748;2023-03-24T05:19:53;4.70;;;2.38;;
34924;SDS011;21130;51.728;8.748;2023-03-24T05:22:19;2.83;;;2.05;;
34924;SDS011;21130;51.728;8.748;2023-03-24T05:24:46;3.53;;;2.60;;
34924;SDS011;21130;51.728;8.748;2023-03-24T05:27:12;2.70;;;2.28;;
34924;SDS011;21130;51.728;8.748;2023-03-24T05:29:39;2.33;;;2.13;;
34924;SDS011;21130;51.728;8.748;2023-03-24T05:32:05;3.45;;;2.40;;
34924;SDS011;21130;51.728;8.748;2023-03-24T05:34:33;2.30;;;2.10;;
34924;SDS011;21130;51.728;8.748;2023-03-24T05:36:59;4.18;;;2.25;;
34924;SDS011;21130;51.728;8.748;2023-03-24T05:39:25;2.45;;;2.05;;
34924;SDS011;21130;51.728;8.748;2023-03-24T05:41:52;2.60;;;2.40;;
34924;SDS011;21130;51.728;8.748;2023-03-24T05:44:18;3.35;;;2.13;;
34924;SDS011;21130;51.728;8.748;2023-03-24T05:46:45;2.40;;;2.20;;
34924;SDS011;21130;51.728;8.748;2023-03-24T05:49:11;2.60;;;2.33;;
34924;SDS011;21130;51.728;8.748;2023-03-24T05:51:40;2.55;;;2.22;;
34924;SDS011;21130;51.728;8.748;2023-03-24T05:54:06;2.58;;;2.38;;
34924;SDS011;21130;51.728;8.748;2023-03-24T05:56:33;2.40;;;2.20;;
34924;SDS011;21130;51.728;8.748;2023-03-24T05:58:59;3.45;;;2.92;;
34924;SDS011;21130;51.728;8.748;2023-03-24T06:01:26;4.15;;;3.13;;
34924;SDS011;21130;51.728;8.748;2023-03-24T06:03:52;2.42;;;2.10;;
34924;SDS011;21130;51.728;8.748;2023-03-24T06:06:19;3.60;;;1.75;;
34924;SDS011;21130;51.728;8.748;2023-03-24T06:08:47;1.58;;;1.48;;
34924;SDS011;21130;51.728;8.748;2023-03-24T06:11:14;2.15;;;1.10;;
34924;SDS011;21130;51.728;8.748;2023-03-24T06:13:40;1.30;;;1.20;;
34924;SDS011;21130;51.728;8.748;2023-03-24T06:16:07;1.83;;;1.48;;
34924;SDS011;21130;51.728;8.748;2023-03-24T06:18:34;1.75;;;1.48;;
34924;SDS011;21130;51.728;8.748;2023-03-24T06:21:04;2.20;;;1.52;;
34924;SDS011;21130;51.728;8.748;2023-03-24T06:23:31;2.83;;;1.63;;
34924;SDS011;21130;51.728;8.748;2023-03-24T06:25:59;1.25;;;1.15;;
34924;SDS011;21130;51.728;8.748;2023-03-24T06:28:26;2.53;;;1.38;;
34924;SDS011;21130;51.728;8.748;2023-03-24T06:30:54;1.75;;;1.65;;
34924;SDS011;21130;51.728;8.748;2023-03-24T06:33:22;2.00;;;1.77;;
34924;SDS011;21130;51.728;8.748;2023-03-24T06:35:49;2.17;;;1.98;;
34924;SDS011;21130;51.728;8.748;2023-03-24T06:38:16;3.00;;;2.35;;
34924;SDS011;21130;51.728;8.748;2023-03-24T06:40:43;3.28;;;3.08;;
34924;SDS011;21130;51.728;8.748;2023-03-24T06:43:11;3.45;;;2.95;;
34924;SDS011;21130;51.728;8.748;2023-03-24T06:45:37;3.35;;;3.05;;
34924;SDS011;21130;51.728;8.748;2023-03-24T06:48:04;3.58;;;3.20;;
34924;SDS011;21130;51.728;8.748;2023-03-24T06:50:31;4.63;;;3.08;;
34924;SDS011;21130;51.728;8.748;2023-03-24T06:52:59;2.97;;;2.78;;
34924;SDS011;21130;51.728;8.748;2023-03-24T06:55:26;3.70;;;2.65;;
34924;SDS011;21130;51.728;8.748;2023-03-24T06:57:53;2.95;;;2.75;;
34924;SDS011;21130;51.728;8.748;2023-03-24T07:00:21;3.92;;;3.13;;
34924;SDS011;21130;51.728;8.748;2023-03-24T07:02:49;4.25;;;2.80;;
34924;SDS011;21130;51.728;8.748;2023-03-24T07:05:16;3.55;;;2.97;;
34924;SDS011;21130;51.728;8.748;2023-03-24T07:07:43;4.45;;;3.22;;
34924;SDS011;21130;51.728;8.748;2023-03-24T07:10:10;3.95;;;3.65;;
34924;SDS011;21130;51.728;8.748;2023-03-24T07:12:37;3.78;;;3.47;;
34924;SDS011;21130;51.728;8.748;2023-03-24T07:15:04;3.80;;;3.50;;
34924;SDS011;21130;51.728;8.748;2023-03-24T07:17:33;3.60;;;3.30;;
34924;SDS011;21130;51.728;8.748;2023-03-24T07:20:00;3.75;;;3.45;;
34924;SDS011;21130;51.728;8.748;2023-03-24T07:22:28;4.47;;;3.40;;
34924;SDS011;21130;51.728;8.748;2023-03-24T07:24:55;3.60;;;3.30;;
34924;SDS011;21130;51.728;8.748;2023-03-24T07:27:22;5.38;;;2.83;;
34924;SDS011;21130;51.728;8.748;2023-03-24T07:29:48;5.45;;;3.10;;
34924;SDS011;21130;51.728;8.748;2023-03-24T07:32:14;3.17;;;2.88;;
34924;SDS011;21130;51.728;8.748;2023-03-24T07:34:43;3.97;;;2.83;;
34924;SDS011;21130;51.728;8.748;2023-03-24T07:37:10;3.83;;;1.83;;
34924;SDS011;21130;51.728;8.748;2023-03-24T07:39:36;3.65;;;1.80;;
34924;SDS011;21130;51.728;8.748;2023-03-24T07:42:03;1.85;;;1.70;;
34924;SDS011;21130;51.728;8.748;2023-03-24T07:44:30;2.42;;;1.85;;
34924;SDS011;21130;51.728;8.748;2023-03-24T07:46:56;2.80;;;1.58;;
34924;SDS011;21130;51.728;8.748;2023-03-24T07:49:23;3.97;;;1.83;;
34924;SDS011;21130;51.728;8.748;2023-03-24T07:51:51;2.20;;;1.48;;
34924;SDS011;21130;51.728;8.748;2023-03-24T07:54:17;4.85;;;1.90;;
34924;SDS011;21130;51.728;8.748;2023-03-24T07:56:44;2.15;;;1.90;;
34924;SDS011;21130;51.728;8.748;2023-03-24T07:59:10;5.22;;;2.45;;
34924;SDS011;21130;51.728;8.748;2023-03-24T08:01:36;4.47;;;2.13;;
34924;SDS011;21130;51.728;8.748;2023-03-24T08:04:03;5.05;;;2.47;;
34924;SDS011;21130;51.728;8.748;2023-03-24T08:06:31;4.88;;;2.97;;
34924;SDS011;21130;51.728;8.748;2023-03-24T08:09:00;4.82;;;3.30;;
34924;SDS011;21130;51.728;8.748;2023-03-24T08:11:26;4.45;;;3.25;;
34924;SDS011;21130;51.728;8.748;2023-03-24T08:13:53;7.03;;;3.70;;
34924;SDS011;21130;51.728;8.748;2023-03-24T08:16:19;5.20;;;3.83;;
34924;SDS011;21130;51.728;8.748;2023-03-24T08:18:46;4.80;;;4.30;;
34924;SDS011;21130;51.728;8.748;2023-03-24T08:21:15;9.88;;;3.85;;
34924;SDS011;21130;51.728;8.748;2023-03-24T08:23:41;6.43;;;3.50;;
34924;SDS011;21130;51.728;8.748;2023-03-24T08:26:09;4.45;;;3.10;;
34924;SDS011;21130;51.728;8.748;2023-03-24T08:28:36;7.95;;;3.13;;
34924;SDS011;21130;51.728;8.748;2023-03-24T08:31:03;7.10;;;3.25;;
34924;SDS011;21130;51.728;8.748;2023-03-24T08:33:30;10.93;;;3.50;;
34924;SDS011;21130;51.728;8.748;2023-03-24T08:35:56;8.80;;;3.28;;
34924;SDS011;21130;51.728;8.748;2023-03-24T08:38:23;9.93;;;3.20;;
34924;SDS011;21130;51.728;8.748;2023-03-24T08:40:55;4.78;;;2.72;;
34924;SDS011;21130;51.728;8.748;2023-03-24T08:43:24;7.75;;;2.85;;
34924;SDS011;21130;51.728;8.748;2023-03-24T08:45:50;5.75;;;2.83;;
34924;SDS011;21130;51.728;8.748;2023-03-24T08:48:17;7.65;;;3.10;;
34924;SDS011;21130;51.728;8.748;2023-03-24T08:50:43;7.18;;;2.70;;
34924;SDS011;21130;51.728;8.748;2023-03-24T08:53:09;6.20;;;3.17;;
34924;SDS011;21130;51.728;8.748;2023-03-24T08:55:36;7.93;;;3.17;;
34924;SDS011;21130;51.728;8.748;2023-03-24T08:58:05;6.68;;;2.67;;
34924;SDS011;21130;51.728;8.748;2023-03-24T09:00:33;5.88;;;3.20;;
34924;SDS011;21130;51.728;8.748;2023-03-24T09:03:00;7.35;;;3.35;;
34924;SDS011;21130;51.728;8.748;2023-03-24T09:05:26;7.32;;;3.17;;
34924;SDS011;21130;51.728;8.748;2023-03-24T09:07:53;7.65;;;3.40;;
34924;SDS011;21130;51.728;8.748;2023-03-24T09:10:19;5.93;;;3.47;;
34924;SDS011;21130;51.728;8.748;2023-03-24T09:12:47;5.70;;;3.67;;
34924;SDS011;21130;51.728;8.748;2023-03-24T09:15:14;6.85;;;3.60;;
34924;SDS011;21130;51.728;8.748;2023-03-24T09:17:42;6.50;;;3.53;;
34924;SDS011;21130;51.728;8.748;2023-03-24T09:20:10;6.47;;;3.30;;
34924;SDS011;21130;51.728;8.748;2023-03-24T09:22:40;6.70;;;3.47;;
34924;SDS011;21130;51.728;8.748;2023-03-24T09:25:08;7.63;;;4.35;;
34924;SDS011;21130;51.728;8.748;2023-03-24T09:27:36;7.15;;;3.30;;
34924;SDS011;21130;51.728;8.748;2023-03-24T09:30:05;5.70;;;3.78;;
34924;SDS011;21130;51.728;8.748;2023-03-24T09:32:33;4.18;;;2.42;;
34924;SDS011;21130;51.728;8.748;2023-03-24T09:35:01;7.05;;;2.30;;
34924;SDS011;21130;51.728;8.748;2023-03-24T09:37:28;7.55;;;2.63;;
34924;SDS011;21130;51.728;8.748;2023-03-24T09:39:55;5.90;;;2.35;;
34924;SDS011;21130;51.728;8.748;2023-03-24T09:42:23;4.95;;;2.10;;
34924;SDS011;21130;51.728;8.748;2023-03-24T09:44:53;4.28;;;1.83;;
34924;SDS011;21130;51.728;8.748;2023-03-24T09:47:24;6.53;;;1.77;;
34924;SDS011;21130;51.728;8.748;2023-03-24T09:49:54;8.98;;;1.90;;
34924;SDS011;21130;51.728;8.748;2023-03-24T09:52:29;5.70;;;1.90;;
34924;SDS011;21130;51.728;8.748;2023-03-24T09:54:58;5.75;;;2.10;;
34924;SDS011;21130;51.728;8.748;2023-03-24T09:57:27;5.68;;;1.50;;
34924;SDS011;21130;51.728;8.748;2023-03-24T10:00:00;5.80;;;2.17;;
34924;SDS011;21130;51.728;8.748;2023-03-24T10:02:33;6.32;;;2.33;;
34924;SDS011;21130;51.728;8.748;2023-03-24T10:05:00;5.50;;;2.08;;
34924;SDS011;21130;51.728;8.748;2023-03-24T10:07:28;5.43;;;2.30;;
34924;SDS011;21130;51.728;8.748;2023-03-24T10:10:00;5.38;;;1.98;;
34924;SDS011;21130;51.728;8.748;2023-03-24T10:12:29;6.13;;;2.20;;
34924;SDS011;21130;51.728;8.748;2023-03-24T10:15:06;7.70;;;2.13;;
34924;SDS011;21130;51.728;8.748;2023-03-24T10:18:04;6.53;;;2.38;;
34924;SDS011;21130;51.728;8.748;2023-03-24T10:21:03;8.70;;;2.40;;
34924;SDS011;21130;51.728;8.748;2023-03-24T10:23:38;6.72;;;2.58;;
34924;SDS011;21130;51.728;8.748;2023-03-24T10:26:11;5.50;;;2.15;;
34924;SDS011;21130;51.728;8.748;2023-03-24T10:28:51;9.18;;;2.58;;
34924;SDS011;21130;51.728;8.748;2023-03-24T10:31:29;5.90;;;2.17;;
34924;SDS011;21130;51.728;8.748;2023-03-24T10:33:57;7.88;;;1.75;;
34924;SDS011;21130;51.728;8.748;2023-03-24T10:36:25;6.70;;;2.10;;
34924;SDS011;21130;51.728;8.748;2023-03-24T10:38:54;5.32;;;1.73;;
34924;SDS011;21130;51.728;8.748;2023-03-24T10:41:21;5.35;;;1.50;;
34924;SDS011;21130;51.728;8.748;2023-03-24T10:43:49;3.42;;;1.58;;
34924;SDS011;21130;51.728;8.748;2023-03-24T10:46:17;5.90;;;1.60;;
34924;SDS011;21130;51.728;8.748;2023-03-24T10:48:46;4.75;;;1.88;;
34924;SDS011;21130;51.728;8.748;2023-03-24T10:51:15;4.57;;;1.73;;
34924;SDS011;21130;51.728;8.748;2023-03-24T10:53:43;4.43;;;1.60;;
34924;SDS011;21130;51.728;8.748;2023-03-24T10:56:16;7.00;;;1.80;;
34924;SDS011;21130;51.728;8.748;2023-03-24T10:58:44;8.13;;;2.47;;
34924;SDS011;21130;51.728;8.748;2023-03-24T11:01:20;5.20;;;2.00;;
34924;SDS011;21130;51.728;8.748;2023-03-24T11:03:50;6.90;;;1.95;;
34924;SDS011;21130;51.728;8.748;2023-03-24T11:06:17;3.88;;;1.60;;
34924;SDS011;21130;51.728;8.748;2023-03-24T11:08:45;4.75;;;1.90;;
34924;SDS011;21130;51.728;8.748;2023-03-24T11:11:13;5.07;;;2.10;;
34924;SDS011;21130;51.728;8.748;2023-03-24T11:13:54;7.32;;;1.85;;
34924;SDS011;21130;51.728;8.748;2023-03-24T11:16:25;5.03;;;2.00;;
34924;SDS011;21130;51.728;8.748;2023-03-24T11:18:53;6.03;;;2.00;;
34924;SDS011;21130;51.728;8.748;2023-03-24T11:21:21;4.55;;;1.98;;
34924;SDS011;21130;51.728;8.748;2023-03-24T11:23:48;6.07;;;2.60;;
34924;SDS011;21130;51.728;8.748;2023-03-24T11:26:16;5.82;;;1.90;;
34924;SDS011;21130;51.728;8.748;2023-03-24T11:28:46;5.20;;;1.85;;
34924;SDS011;21130;51.728;8.748;2023-03-24T11:31:21;7.22;;;2.50;;
34924;SDS011;21130;51.728;8.748;2023-03-24T11:33:50;7.10;;;2.28;;
34924;SDS011;21130;51.728;8.748;2023-03-24T11:36:39;9.48;;;2.58;;
34924;SDS011;21130;51.728;8.748;2023-03-24T11:39:12;7.07;;;2.60;;
34924;SDS011;21130;51.728;8.748;2023-03-24T11:41:42;8.25;;;2.72;;
34924;SDS011;21130;51.728;8.748;2023-03-24T11:44:16;6.75;;;2.33;;
34924;SDS011;21130;51.728;8.748;2023-03-24T11:46:46;6.53;;;2.70;;
34924;SDS011;21130;51.728;8.748;2023-03-24T11:49:35;8.18;;;2.80;;
34924;SDS011;21130;51.728;8.748;2023-03-24T11:52:08;8.30;;;2.58;;
34924;SDS011;21130;51.728;8.748;2023-03-24T11:54:44;10.98;;;3.17;;
34924;SDS011;21130;51.728;8.748;2023-03-24T11:57:11;6.05;;;2.45;;
34924;SDS011;21130;51.728;8.748;2023-03-24T11:59:41;11.55;;;2.75;;
34924;SDS011;21130;51.728;8.748;2023-03-24T12:02:18;6.68;;;3.00;;
34924;SDS011;21130;51.728;8.748;2023-03-24T12:04:55;7.85;;;2.03;;
34924;SDS011;21130;51.728;8.748;2023-03-24T12:07:37;6.65;;;2.75;;
34924;SDS011;21130;51.728;8.748;2023-03-24T12:10:23;8.80;;;3.00;;
34924;SDS011;21130;51.728;8.748;2023-03-24T12:13:00;8.93;;;3.22;;
34924;SDS011;21130;51.728;8.748;2023-03-24T12:15:35;6.80;;;2.47;;
34924;SDS011;21130;51.728;8.748;2023-03-24T12:18:22;5.47;;;2.30;;
34924;SDS011;21130;51.728;8.748;2023-03-24T12:21:06;6.07;;;2.65;;
34924;SDS011;21130;51.728;8.748;2023-03-24T12:23:42;7.90;;;2.63;;
34924;SDS011;21130;51.728;8.748;2023-03-24T12:26:19;8.38;;;2.45;;
34924;SDS011;21130;51.728;8.748;2023-03-24T12:29:01;7.57;;;2.78;;
34924;SDS011;21130;51.728;8.748;2023-03-24T12:31:47;6.55;;;2.45;;
34924;SDS011;21130;51.728;8.748;2023-03-24T12:34:34;5.82;;;2.45;;
34924;SDS011;21130;51.728;8.748;2023-03-24T12:45:21;6.35;;;2.80;;
34924;SDS011;21130;51.728;8.748;2023-03-24T12:48:06;6.25;;;2.30;;
34924;SDS011;21130;51.728;8.748;2023-03-24T12:50:54;8.95;;;2.40;;
34924;SDS011;21130;51.728;8.748;2023-03-24T12:53:38;8.60;;;1.92;;
34924;SDS011;21130;51.728;8.748;2023-03-24T12:56:18;9.43;;;2.10;;
34924;SDS011;21130;51.728;8.748;2023-03-24T12:58:49;7.07;;;2.38;;
34924;SDS011;21130;51.728;8.748;2023-03-24T13:01:20;8.00;;;2.28;;
34924;SDS011;21130;51.728;8.748;2023-03-24T13:03:54;4.10;;;1.95;;
34924;SDS011;21130;51.728;8.748;2023-03-24T13:06:28;7.68;;;2.20;;
34924;SDS011;21130;51.728;8.748;2023-03-24T13:09:09;8.70;;;2.28;;
34924;SDS011;21130;51.728;8.748;2023-03-24T13:11:45;7.80;;;1.70;;
34924;SDS011;21130;51.728;8.748;2023-03-24T13:14:19;5.90;;;2.05;;
34924;SDS011;21130;51.728;8.748;2023-03-24T13:16:51;7.25;;;2.20;;
34924;SDS011;21130;51.728;8.748;2023-03-24T13:19:26;5.47;;;2.00;;
34924;SDS011;21130;51.728;8.748;2023-03-24T13:21:54;5.43;;;1.73;;
34924;SDS011;21130;51.728;8.748;2023-03-24T13:24:22;5.88;;;1.80;;
34924;SDS011;21130;51.728;8.748;2023-03-24T13:26:52;7.82;;;1.80;;
34924;SDS011;21130;51.728;8.748;2023-03-24T13:29:28;5.22;;;1.90;;
34924;SDS011;21130;51.728;8.748;2023-03-24T13:32:13;6.55;;;1.73;;
34924;SDS011;21130;51.728;8.748;2023-03-24T13:34:50;7.57;;;2.00;;
34924;SDS011;21130;51.728;8.748;2023-03-24T13:37:24;4.93;;;1.63;;
34924;SDS011;21130;51.728;8.748;2023-03-24T13:39:55;6.57;;;2.25;;
34924;SDS011;21130;51.728;8.748;2023-03-24T13:42:28;7.95;;;2.10;;
34924;SDS011;21130;51.728;8.748;2023-03-24T13:44:57;5.00;;;1.67;;
34924;SDS011;21130;51.728;8.748;2023-03-24T13:47:25;5.35;;;2.17;;
34924;SDS011;21130;51.728;8.748;2023-03-24T13:49:54;6.65;;;2.03;;
34924;SDS011;21130;51.728;8.748;2023-03-24T13:52:27;5.60;;;1.60;;
34924;SDS011;21130;51.728;8.748;2023-03-24T13:54:59;5.15;;;1.70;;
34924;SDS011;21130;51.728;8.748;2023-03-24T13:57:32;5.25;;;1.85;;
34924;SDS011;21130;51.728;8.748;2023-03-24T14:00:01;4.85;;;2.03;;
34924;SDS011;21130;51.728;8.748;2023-03-24T14:02:44;4.78;;;2.08;;
34924;SDS011;21130;51.728;8.748;2023-03-24T14:08:39;8.02;;;2.20;;
34924;SDS011;21130;51.728;8.748;2023-03-24T14:11:09;8.00;;;2.20;;
34924;SDS011;21130;51.728;8.748;2023-03-24T14:14:16;7.53;;;2.65;;
34924;SDS011;21130;51.728;8.748;2023-03-24T14:16:49;5.70;;;2.25;;
34924;SDS011;21130;51.728;8.748;2023-03-24T14:19:22;6.35;;;2.25;;
34924;SDS011;21130;51.728;8.748;2023-03-24T14:21:52;5.95;;;2.00;;
34924;SDS011;21130;51.728;8.748;2023-03-24T14:24:34;6.13;;;1.77;;
34924;SDS011;21130;51.728;8.748;2023-03-24T14:29:48;5.07;;;1.70;;
34924;SDS011;21130;51.728;8.748;2023-03-24T14:32:16;7.50;;;2.03;;
34924;SDS011;21130;51.728;8.748;2023-03-24T14:34:54;7.63;;;2.03;;
34924;SDS011;21130;51.728;8.748;2023-03-24T14:37:22;6.55;;;2.10;;
34924;SDS011;21130;51.728;8.748;2023-03-24T14:39:52;6.93;;;1.70;;
34924;SDS011;21130;51.728;8.748;2023-03-24T14:42:25;6.10;;;1.73;;
34924;SDS011;21130;51.728;8.748;2023-03-24T14:45:09;8.18;;;2.08;;
34924;SDS011;21130;51.728;8.748;2023-03-24T14:48:37;7.28;;;2.00;;
34924;SDS011;21130;51.728;8.748;2023-03-24T14:51:13;6.70;;;2.22;;
34924;SDS011;21130;51.728;8.748;2023-03-24T14:53:49;6.93;;;2.00;;
34924;SDS011;21130;51.728;8.748;2023-03-24T14:56:18;7.13;;;1.98;;
34924;SDS011;21130;51.728;8.748;2023-03-24T14:58:47;7.57;;;1.55;;
34924;SDS011;21130;51.728;8.748;2023-03-24T15:01:20;6.00;;;1.70;;
34924;SDS011;21130;51.728;8.748;2023-03-24T15:03:51;4.60;;;1.40;;
34924;SDS011;21130;51.728;8.748;2023-03-24T15:06:24;3.17;;;1.23;;
34924;SDS011;21130;51.728;8.748;2023-03-24T15:08:51;3.67;;;0.98;;
34924;SDS011;21130;51.728;8.748;2023-03-24T15:11:21;3.22;;;1.42;;
34924;SDS011;21130;51.728;8.748;2023-03-24T15:13:50;6.50;;;1.60;;
34924;SDS011;21130;51.728;8.748;2023-03-24T15:16:20;3.60;;;1.45;;
34924;SDS011;21130;51.728;8.748;2023-03-24T15:18:49;3.20;;;1.30;;
34924;SDS011;21130;51.728;8.748;2023-03-24T15:21:21;6.97;;;1.63;;
34924;SDS011;21130;51.728;8.748;2023-03-24T15:23:51;5.50;;;1.58;;
34924;SDS011;21130;51.728;8.748;2023-03-24T15:26:18;4.55;;;1.50;;
34924;SDS011;21130;51.728;8.748;2023-03-24T15:28:52;4.25;;;1.20;;
34924;SDS011;21130;51.728;8.748;2023-03-24T15:31:21;6.13;;;1.58;;
34924;SDS011;21130;51.728;8.748;2023-03-24T15:33:49;3.67;;;1.45;;
34924;SDS011;21130;51.728;8.748;2023-03-24T15:36:19;6.40;;;1.80;;